Time,TemperatureF,DewpointF,PressureIn,WindDirection,WindDirectionDegrees,WindSpeedMPH,WindSpeedGustMPH,Humidity,HourlyPrecipIn,Conditions,Clouds,dailyrainin,SoftwareType,DateUTC
2013-09-16 00:14:00,60.0,58.0,30.14,South,177,0.0,0.0,94,0.00,,,-99.99,,2013-09-16 04:14:00,
2013-09-16 00:24:00,60.0,58.0,30.14,South,177,0.0,0.0,94,-99.99,,,-99.99,,2013-09-16 04:24:00,
2013-09-16 00:43:00,60.0,58.0,30.14,South,177,0.0,0.0,94,-99.99,,,-99.99,,2013-09-16 04:43:00,
2013-09-16 00:54:00,59.0,57.0,30.14,South,177,0.0,0.0,94,-99.99,,,-99.99,,2013-09-16 04:54:00,
2013-09-16 01:13:00,59.0,57.0,30.14,South,177,0.0,0.0,94,-99.99,,,-99.99,,2013-09-16 05:13:00,
2013-09-16 01:22:00,59.0,57.0,30.14,South,177,0.0,0.0,94,0.00,,,-99.99,,2013-09-16 05:22:00,
2013-09-16 01:44:00,59.0,58.0,30.14,South,177,0.0,0.0,95,0.00,,,-99.99,,2013-09-16 05:44:00,
2013-09-16 01:52:00,59.0,58.0,30.14,South,177,0.0,0.0,95,0.00,,,-99.99,,2013-09-16 05:52:00,
2013-09-16 02:12:00,59.0,58.0,30.14,South,177,0.0,0.0,95,0.00,,,-99.99,,2013-09-16 06:12:00,
2013-09-16 02:22:00,59.0,58.0,30.14,South,177,0.0,0.0,95,0.00,,,-99.99,,2013-09-16 06:22:00,
2013-09-16 02:52:00,59.0,58.0,30.14,ENE,77,0.0,0.0,95,0.00,,,-99.99,,2013-09-16 06:52:00,
2013-09-16 03:12:00,59.0,58.0,30.14,ENE,77,0.0,0.0,95,0.00,,,-99.99,,2013-09-16 07:12:00,
2013-09-16 03:22:00,59.0,58.0,30.13,ENE,77,0.0,0.0,95,0.00,,,-99.99,,2013-09-16 07:22:00,
2013-09-16 03:43:00,59.0,58.0,30.12,ENE,77,0.0,0.0,95,0.00,,,-99.99,,2013-09-16 07:43:00,
2013-09-16 03:52:00,59.0,58.0,30.12,ENE,77,0.0,0.0,95,0.00,,,-99.99,,2013-09-16 07:52:00,
2013-09-16 04:12:00,60.0,59.0,30.11,ENE,77,0.0,0.0,95,0.00,,,-99.99,,2013-09-16 08:12:00,
2013-09-16 04:22:00,60.0,59.0,30.12,ENE,77,0.0,0.0,95,0.00,,,-99.99,,2013-09-16 08:22:00,
2013-09-16 04:42:00,60.0,59.0,30.11,ENE,77,0.0,0.0,95,0.00,,,-99.99,,2013-09-16 08:42:00,
2013-09-16 04:52:00,60.0,59.0,30.11,ENE,77,0.0,0.0,95,0.00,,,-99.99,,2013-09-16 08:52:00,
2013-09-16 05:12:00,60.0,59.0,30.11,ENE,77,0.0,0.0,95,0.00,,,-99.99,,2013-09-16 09:12:00,
2013-09-16 05:22:00,60.0,59.0,30.11,ENE,77,0.0,0.0,95,0.00,,,-99.99,,2013-09-16 09:22:00,
2013-09-16 05:43:00,59.0,58.0,30.12,ENE,77,0.0,0.0,95,0.00,,,-99.99,,2013-09-16 09:43:00,
2013-09-16 05:53:00,59.0,58.0,30.12,ENE,77,0.0,0.0,95,0.00,,,-99.99,,2013-09-16 09:53:00,
2013-09-16 06:12:00,58.0,57.0,30.12,ENE,77,0.0,0.0,95,0.00,,,-99.99,,2013-09-16 10:12:00,
2013-09-16 06:23:00,58.0,57.0,30.12,ENE,77,0.0,0.0,95,0.00,,,-99.99,,2013-09-16 10:23:00,
2013-09-16 06:42:00,58.0,57.0,30.11,ENE,77,0.0,0.0,95,0.00,,,-99.99,,2013-09-16 10:42:00,
2013-09-16 06:53:00,58.0,57.0,30.11,ENE,77,0.0,0.0,95,0.00,,,-99.99,,2013-09-16 10:53:00,
2013-09-16 07:12:00,58.0,57.0,30.11,ENE,77,0.0,0.0,95,0.00,,,-99.99,,2013-09-16 11:12:00,
2013-09-16 07:22:00,60.0,59.0,30.12,ENE,77,0.0,0.0,96,0.00,,,-99.99,,2013-09-16 11:22:00,
2013-09-16 07:42:00,60.0,59.0,30.12,ENE,77,0.0,0.0,95,0.00,,,-99.99,,2013-09-16 11:42:00,
2013-09-16 07:52:00,60.0,59.0,30.13,ENE,77,0.0,0.0,95,0.00,,,-99.99,,2013-09-16 11:52:00,
2013-09-16 08:12:00,60.0,59.0,30.12,ENE,77,0.0,0.0,95,0.00,,,-99.99,,2013-09-16 12:12:00,
2013-09-16 08:22:00,61.0,60.0,30.12,ENE,77,0.0,0.0,95,0.00,,,-99.99,,2013-09-16 12:22:00,
2013-09-16 08:52:00,63.0,62.0,30.12,SSW,199,0.0,0.0,95,0.00,,,-99.99,,2013-09-16 12:52:00,
2013-09-16 09:11:00,64.0,62.0,30.12,SE,145,4.0,4.0,92,0.00,,,-99.99,,2013-09-16 13:11:00,
2013-09-16 09:22:00,66.0,63.0,30.13,South,191,2.0,6.0,90,0.00,,,-99.99,,2013-09-16 13:22:00,
2013-09-16 09:52:00,70.0,64.0,30.12,SSE,155,3.0,5.0,82,0.00,,,-99.99,,2013-09-16 13:52:00,
2013-09-16 10:11:00,71.0,63.0,30.12,SSW,196,5.0,7.0,76,0.00,,,-99.99,,2013-09-16 14:11:00,
2013-09-16 10:22:00,71.0,64.0,30.12,SW,215,4.0,6.0,78,0.00,,,-99.99,,2013-09-16 14:22:00,
2013-09-16 10:52:00,74.0,63.0,30.12,SSW,206,4.0,7.0,68,0.00,,,-99.99,,2013-09-16 14:52:00,
2013-09-16 11:12:00,75.0,63.0,30.12,SW,229,3.0,6.0,67,0.00,,,-99.99,,2013-09-16 15:12:00,
2013-09-16 11:22:00,76.0,64.0,30.12,West,266,3.0,9.0,66,0.00,,,-99.99,,2013-09-16 15:22:00,
2013-09-16 11:43:00,76.0,62.0,30.12,South,184,5.0,6.0,63,0.00,,,-99.99,,2013-09-16 15:43:00,
2013-09-16 11:53:00,76.0,61.0,30.12,SSW,210,4.0,7.0,60,0.00,,,-99.99,,2013-09-16 15:53:00,
2013-09-16 12:12:00,77.0,63.0,30.12,South,186,4.0,7.0,61,0.00,,,-99.99,,2013-09-16 16:12:00,
2013-09-16 12:23:00,77.0,62.0,30.12,WSW,256,2.0,10.0,60,0.00,,,-99.99,,2013-09-16 16:23:00,
2013-09-16 12:43:00,77.0,61.0,30.12,West,269,5.0,14.0,58,0.00,,,-99.99,,2013-09-16 16:43:00,
2013-09-16 12:52:00,76.0,62.0,30.11,WNW,293,4.0,10.0,62,0.00,,,-99.99,,2013-09-16 16:52:00,
2013-09-16 13:12:00,75.0,61.0,30.12,WNW,284,3.0,8.0,62,0.00,,,-99.99,,2013-09-16 17:12:00,
2013-09-16 13:23:00,75.0,62.0,30.11,WNW,287,1.0,4.0,65,0.00,,,-99.99,,2013-09-16 17:23:00,
2013-09-16 13:42:00,74.0,63.0,30.11,West,280,2.0,4.0,69,0.00,,,-99.99,,2013-09-16 17:42:00,
2013-09-16 13:53:00,74.0,63.0,30.11,WNW,290,4.0,5.0,69,0.00,,,-99.99,,2013-09-16 17:53:00,
2013-09-16 14:12:00,74.0,63.0,30.11,West,275,4.0,5.0,69,0.00,,,-99.99,,2013-09-16 18:12:00,
2013-09-16 14:22:00,74.0,62.0,30.11,WNW,291,5.0,6.0,66,0.00,,,-99.99,,2013-09-16 18:22:00,
2013-09-16 14:42:00,75.0,61.0,30.11,NW,325,5.0,8.0,62,0.00,,,-99.99,,2013-09-16 18:42:00,
2013-09-16 14:52:00,75.0,62.0,30.11,WNW,289,5.0,7.0,65,0.00,,,-99.99,,2013-09-16 18:52:00,
2013-09-16 15:11:00,74.0,62.0,30.10,West,259,3.0,8.0,66,0.00,,,-99.99,,2013-09-16 19:11:00,
2013-09-16 15:22:00,74.0,63.0,30.09,West,277,2.0,7.0,69,0.00,,,-99.99,,2013-09-16 19:22:00,
2013-09-16 15:42:00,75.0,65.0,30.09,WNW,300,1.0,6.0,72,0.00,,,-99.99,,2013-09-16 19:42:00,
2013-09-16 15:53:00,75.0,63.0,30.09,WSW,246,5.0,9.0,67,0.00,,,-99.99,,2013-09-16 19:53:00,
2013-09-16 16:11:00,75.0,62.0,30.09,West,277,4.0,6.0,65,0.00,,,-99.99,,2013-09-16 20:11:00,
2013-09-16 16:22:00,76.0,60.0,30.08,WNW,293,6.0,8.0,58,0.00,,,-99.99,,2013-09-16 20:22:00,
2013-09-16 16:43:00,76.0,62.0,30.08,WNW,291,3.0,7.0,63,0.00,,,-99.99,,2013-09-16 20:43:00,
2013-09-16 16:52:00,75.0,62.0,30.09,NNW,345,3.0,7.0,63,0.00,,,-99.99,,2013-09-16 20:52:00,
2013-09-16 17:11:00,75.0,63.0,30.09,NW,315,0.0,4.0,66,0.00,,,-99.99,,2013-09-16 21:11:00,
2013-09-16 17:22:00,75.0,63.0,30.09,NNE,20,1.0,2.0,66,0.00,,,-99.99,,2013-09-16 21:22:00,
2013-09-16 17:56:00,74.0,64.0,30.09,WNW,294,0.0,5.0,71,0.00,,,-99.99,,2013-09-16 21:56:00,
2013-09-16 18:13:00,73.0,63.0,30.09,NW,315,2.0,4.0,70,0.00,,,-99.99,,2013-09-16 22:13:00,
2013-09-16 18:24:00,73.0,63.0,30.10,WNW,298,2.0,3.0,72,0.00,,,-99.99,,2013-09-16 22:24:00,
2013-09-16 18:43:00,72.0,63.0,30.10,WNW,283,4.0,4.0,73,0.00,,,-99.99,,2013-09-16 22:43:00,
2013-09-16 18:54:00,72.0,63.0,30.10,NW,304,1.0,4.0,74,0.00,,,-99.99,,2013-09-16 22:54:00,
2013-09-16 19:12:00,72.0,64.0,30.11,WNW,298,0.0,0.0,76,0.00,,,-99.99,,2013-09-16 23:12:00,
2013-09-16 19:22:00,72.0,65.0,30.11,North,0,0.0,0.0,78,0.00,,,-99.99,,2013-09-16 23:22:00,
2013-09-16 19:43:00,70.0,64.0,30.11,North,0,0.0,0.0,80,0.00,,,-99.99,,2013-09-16 23:43:00,
2013-09-16 19:53:00,70.0,64.0,30.12,WSW,241,0.0,0.0,81,0.00,,,-99.99,,2013-09-16 23:53:00,
2013-09-16 20:11:00,69.0,61.0,30.13,West,272,1.0,4.0,77,0.00,,,-99.99,,2013-09-17 00:11:00,
2013-09-16 20:22:00,69.0,61.0,30.14,NW,322,1.0,6.0,75,0.00,,,-99.99,,2013-09-17 00:22:00,
2013-09-16 20:42:00,68.0,60.0,30.16,NW,324,1.0,4.0,75,0.00,,,-99.99,,2013-09-17 00:42:00,
2013-09-16 20:52:00,68.0,59.0,30.17,NW,308,3.0,6.0,74,0.00,,,-99.99,,2013-09-17 00:52:00,
2013-09-16 21:12:00,67.0,59.0,30.18,NW,325,2.0,6.0,75,0.00,,,-99.99,,2013-09-17 01:12:00,
2013-09-16 21:22:00,67.0,58.0,30.19,NW,321,4.0,6.0,74,0.00,,,-99.99,,2013-09-17 01:22:00,
2013-09-16 21:42:00,66.0,58.0,30.19,WNW,298,2.0,6.0,76,0.00,,,-99.99,,2013-09-17 01:42:00,
2013-09-16 21:52:00,66.0,59.0,30.20,WNW,290,1.0,3.0,78,0.00,,,-99.99,,2013-09-17 01:52:00,
2013-09-16 22:12:00,66.0,59.0,30.21,NNE,13,1.0,2.0,78,0.00,,,-99.99,,2013-09-17 02:12:00,
2013-09-16 22:22:00,65.0,59.0,30.21,NW,308,0.0,3.0,82,0.00,,,-99.99,,2013-09-17 02:22:00,
2013-09-16 22:42:00,64.0,59.0,30.22,WNW,293,1.0,1.0,85,0.00,,,-99.99,,2013-09-17 02:42:00,
2013-09-16 22:52:00,64.0,60.0,30.22,West,260,0.0,0.0,86,0.00,,,-99.99,,2013-09-17 02:52:00,
2013-09-16 23:12:00,63.0,59.0,30.23,NW,320,0.0,2.0,87,0.00,,,-99.99,,2013-09-17 03:12:00,
2013-09-16 23:23:00,63.0,60.0,30.23,WNW,297,3.0,4.0,89,0.00,,,-99.99,,2013-09-17 03:23:00,
2013-09-16 23:45:00,63.0,59.0,30.23,WNW,294,2.0,2.0,86,0.00,,,-99.99,,2013-09-17 03:45:00,
2013-09-16 23:54:00,63.0,59.0,30.23,WNW,291,0.0,2.0,86,0.00,,,-99.99,,2013-09-17 03:54:00,